Time;durP1;ratioP1;P1;durP2;ratioP2;P2;SDS_P1;SDS_P2;PMS_P1;PMS_P2;Temp;Humidity;BMP_temperature;BMP_pressure;BME280_temperature;BME280_humidity;BME280_pressure;Samples;Min_cycle;Max_cycle;Signal;HPM_P1;HPM_P2
2022/01/13 05:01:51;;;;;;;35.80;18.27;;;;;;;-4.21;100.00;96187.84;5481808;23;20062;-78
2022/01/13 05:04:16;;;;;;;33.90;19.83;;;;;;;-4.14;100.00;96184.19;4972344;28;20398;-78
2022/01/13 05:06:42;;;;;;;33.45;19.40;;;;;;;-4.04;100.00;96189.75;4992669;28;20026;-78
2022/01/13 05:09:07;;;;;;;36.13;19.10;;;;;;;-4.16;100.00;96191.00;4957111;28;20023;-77
2022/01/13 05:11:32;;;;;;;36.10;20.58;;;;;;;-4.16;100.00;96180.06;4958705;28;20057;-79
2022/01/13 05:13:58;;;;;;;32.50;19.60;;;;;;;-4.26;100.00;96192.19;4958100;28;20431;-78
2022/01/13 05:16:34;;;;;;;39.40;20.98;;;;;;;-4.23;100.00;96197.16;4956960;28;20030;-76
2022/01/13 05:24:08;;;;;;;39.00;20.67;;;;;;;-4.22;100.00;96208.09;4975906;28;20031;-77
2022/01/13 05:26:34;;;;;;;35.70;20.27;;;;;;;-4.15;100.00;96215.44;4990782;28;20054;-78
2022/01/13 05:28:59;;;;;;;43.05;21.92;;;;;;;-4.21;100.00;96210.59;4975361;28;20118;-78
2022/01/13 05:31:25;;;;;;;39.05;21.33;;;;;;;-4.17;100.00;96212.09;4975125;28;20484;-78
2022/01/13 05:33:50;;;;;;;37.42;20.08;;;;;;;-4.23;100.00;96209.78;4990300;28;20479;-78
2022/01/13 05:36:16;;;;;;;30.63;19.38;;;;;;;-4.37;100.00;96196.81;4974034;28;20039;-78
2022/01/13 05:38:44;;;;;;;36.50;21.20;;;;;;;-4.26;100.00;96215.78;4972494;28;20041;-77
2022/01/13 05:41:10;;;;;;;35.85;19.73;;;;;;;-4.28;100.00;96220.06;4958429;28;20073;-78
2022/01/13 05:43:35;;;;;;;35.13;20.27;;;;;;;-4.32;100.00;96218.50;4971811;28;20503;-77
2022/01/13 05:46:01;;;;;;;33.97;19.90;;;;;;;-4.16;100.00;96223.88;4973462;28;20030;-77
2022/01/13 05:48:27;;;;;;;34.63;21.30;;;;;;;-4.30;100.00;96213.38;4956444;28;20081;-77
2022/01/13 05:50:52;;;;;;;35.95;18.23;;;;;;;-4.42;100.00;96224.72;4956520;28;20059;-78
2022/01/13 05:53:18;;;;;;;37.33;21.25;;;;;;;-4.22;100.00;96231.66;4957295;28;20050;-76
2022/01/13 05:55:43;;;;;;;35.70;19.85;;;;;;;-4.29;100.00;96228.53;4972071;28;20426;-77
2022/01/13 05:58:09;;;;;;;35.35;19.98;;;;;;;-4.19;100.00;96236.63;4973953;28;20479;-76
2022/01/13 06:00:35;;;;;;;36.78;19.08;;;;;;;-4.16;100.00;96233.16;4988751;28;20022;-77
2022/01/13 06:03:01;;;;;;;36.67;20.23;;;;;;;-4.12;100.00;96227.97;4990697;28;20483;-78
2022/01/13 06:05:26;;;;;;;34.65;19.73;;;;;;;-4.18;100.00;96237.47;4955975;28;20121;-78
2022/01/13 06:07:53;;;;;;;32.75;18.63;;;;;;;-4.22;100.00;96241.78;4989514;28;20110;-78
2022/01/13 06:10:19;;;;;;;33.85;18.98;;;;;;;-4.27;100.00;96243.66;4989049;28;20026;-77
2022/01/13 06:12:50;;;;;;;32.40;18.30;;;;;;;-4.28;100.00;96250.41;4968878;28;20531;-77
2022/01/13 06:15:18;;;;;;;34.33;19.60;;;;;;;-4.24;100.00;96255.34;4953762;28;20444;-77
2022/01/13 06:17:44;;;;;;;30.00;17.70;;;;;;;-4.22;100.00;96253.59;4952115;28;20030;-77
2022/01/13 06:20:11;;;;;;;31.55;18.48;;;;;;;-4.24;100.00;96255.34;4954065;28;20397;-78
2022/01/13 06:22:38;;;;;;;38.08;18.70;;;;;;;-4.26;100.00;96256.22;4959170;28;20039;-78
2022/01/13 06:25:05;;;;;;;30.42;17.80;;;;;;;-4.18;100.00;96258.50;4953758;28;20027;-78
2022/01/13 06:27:31;;;;;;;25.40;15.98;;;;;;;-4.26;100.00;96256.22;4969068;28;20074;-78
2022/01/13 06:29:57;;;;;;;32.53;18.17;;;;;;;-4.23;100.00;96262.03;4938582;28;20030;-77
2022/01/13 06:32:23;;;;;;;29.40;15.40;;;;;;;-4.27;100.00;96266.41;4972146;28;20026;-77
2022/01/13 06:34:51;;;;;;;28.23;15.90;;;;;;;-4.19;100.00;96263.59;4954200;28;20574;-77
2022/01/13 06:37:16;;;;;;;29.02;15.98;;;;;;;-4.15;100.00;96267.69;4972373;28;20117;-76
2022/01/13 06:39:42;;;;;;;25.45;16.35;;;;;;;-4.21;100.00;96268.72;4971207;28;20392;-77
2022/01/13 06:42:08;;;;;;;23.55;14.85;;;;;;;-4.30;100.00;96271.53;4972172;28;20038;-76
2022/01/13 06:44:33;;;;;;;32.97;15.02;;;;;;;-4.22;100.00;96269.59;4954697;28;20034;-76
2022/01/13 06:46:59;;;;;;;23.05;15.52;;;;;;;-4.19;100.00;96264.44;4955818;28;20071;-78
2022/01/13 06:49:24;;;;;;;25.58;15.13;;;;;;;-4.08;100.00;96269.97;4988983;28;20507;-76
2022/01/13 06:51:50;;;;;;;25.92;15.13;;;;;;;-3.99;100.00;96256.19;4990462;28;20450;-79
2022/01/13 06:54:15;;;;;;;25.95;16.13;;;;;;;-3.94;100.00;96277.91;4973219;28;20065;-77
2022/01/13 06:56:41;;;;;;;25.83;14.52;;;;;;;-4.14;99.32;96271.88;4970842;28;20407;-76
2022/01/13 06:59:09;;;;;;;26.98;15.15;;;;;;;-3.97;98.15;96283.06;4955952;28;20036;-76
2022/01/13 07:01:35;;;;;;;24.33;13.77;;;;;;;-4.09;98.52;96291.06;4954611;28;20049;-76
2022/01/13 07:04:01;;;;;;;24.58;14.10;;;;;;;-4.09;98.49;96286.03;4989674;28;20022;-78
2022/01/13 07:06:26;;;;;;;27.15;16.20;;;;;;;-3.98;98.31;96295.78;4971704;28;20018;-76
2022/01/13 07:08:51;;;;;;;30.05;15.80;;;;;;;-4.01;97.99;96279.00;4971715;28;20503;-78
2022/01/13 07:11:17;;;;;;;25.02;15.02;;;;;;;-4.08;97.76;96297.78;4971737;28;20022;-78
2022/01/13 07:13:43;;;;;;;24.35;14.55;;;;;;;-4.21;97.61;96295.69;4988276;28;20503;-76
2022/01/13 07:16:08;;;;;;;25.98;15.13;;;;;;;-4.00;97.83;96305.94;4955768;28;20030;-77
2022/01/13 07:18:38;;;;;;;25.08;15.45;;;;;;;-3.85;98.30;96315.56;4970665;28;20034;-77
2022/01/13 07:21:06;;;;;;;26.80;16.85;;;;;;;-4.07;97.93;96316.28;4956272;28;20509;-77
2022/01/13 07:23:31;;;;;;;31.52;15.43;;;;;;;-3.88;97.41;96315.66;4970277;28;20069;-77
2022/01/13 07:25:57;;;;;;;27.20;15.98;;;;;;;-4.01;96.58;96321.97;4955586;28;20065;-77
2022/01/13 07:28:22;;;;;;;25.42;13.63;;;;;;;-4.09;96.44;96321.41;4988908;28;20117;-76
2022/01/13 07:30:47;;;;;;;23.55;13.93;;;;;;;-4.09;96.68;96306.25;4954700;28;20461;-78
2022/01/13 07:33:13;;;;;;;26.13;14.18;;;;;;;-3.91;96.86;96325.03;4972190;28;20092;-78
2022/01/13 07:35:38;;;;;;;24.33;14.77;;;;;;;-4.05;95.69;96315.38;4970508;28;20026;-77
2022/01/13 07:38:04;;;;;;;25.05;15.68;;;;;;;-3.94;94.88;96320.91;4971577;28;20034;-77
2022/01/13 07:40:29;;;;;;;31.13;16.52;;;;;;;-3.98;95.21;96314.28;4968789;28;20065;-77
2022/01/13 07:42:56;;;;;;;24.25;15.23;;;;;;;-4.05;95.31;96320.44;4981794;28;20018;-78
2022/01/13 07:45:21;;;;;;;24.98;14.93;;;;;;;-4.03;96.20;96325.44;4986749;28;20518;-78
2022/01/13 07:47:47;;;;;;;24.85;15.60;;;;;;;-4.14;95.36;96323.25;4954964;28;20547;-78
2022/01/13 07:50:14;;;;;;;23.95;14.18;;;;;;;-4.09;95.36;96339.13;4986500;28;20035;-77
2022/01/13 07:52:40;;;;;;;22.65;13.18;;;;;;;-3.98;94.72;96347.16;4954364;28;20080;-79
2022/01/13 07:55:06;;;;;;;23.98;14.85;;;;;;;-3.88;94.45;96356.13;4956424;28;20030;-79
2022/01/13 07:57:33;;;;;;;27.42;14.23;;;;;;;-4.02;93.18;96350.69;4951351;28;20039;-79
2022/01/13 07:59:59;;;;;;;28.05;14.48;;;;;;;-3.87;92.00;96357.78;4943145;28;20038;-79
2022/01/13 08:02:24;;;;;;;25.15;13.60;;;;;;;-3.91;92.32;96351.16;4981016;28;20046;-78
2022/01/13 08:04:50;;;;;;;21.75;12.45;;;;;;;-3.91;92.18;96365.50;4988865;28;20039;-78
2022/01/13 08:07:16;;;;;;;24.15;13.20;;;;;;;-3.78;92.92;96376.88;4967982;28;20027;-79
2022/01/13 08:09:42;;;;;;;21.33;12.60;;;;;;;-3.75;92.55;96375.09;4971663;28;20035;-79
2022/01/13 08:12:07;;;;;;;22.67;12.80;;;;;;;-3.67;90.98;96379.09;4954836;28;20027;-78
2022/01/13 08:14:35;;;;;;;19.40;12.60;;;;;;;-4.05;91.45;96372.72;4955627;28;20065;-79
2022/01/13 08:17:02;;;;;;;20.73;12.52;;;;;;;-3.98;91.47;96385.09;4990575;28;20048;-78
2022/01/13 08:19:48;;;;;;;21.95;13.10;;;;;;;-3.97;90.94;96384.25;4957947;28;20033;-78
2022/01/13 08:22:17;;;;;;;22.08;13.65;;;;;;;-3.81;91.96;96379.53;4962967;28;20026;-80
2022/01/13 08:24:43;;;;;;;22.75;13.45;;;;;;;-3.80;91.77;96391.31;4962706;28;20030;-80
2022/01/13 08:27:09;;;;;;;27.10;13.02;;;;;;;-3.61;91.64;96383.94;4984257;28;20026;-79
2022/01/13 08:29:38;;;;;;;21.98;12.55;;;;;;;-3.73;90.84;96377.59;4983444;28;20045;-79
2022/01/13 08:32:03;;;;;;;19.95;12.18;;;;;;;-3.82;90.69;96383.75;4964907;28;20034;-80
2022/01/13 08:34:38;;;;;;;20.45;12.50;;;;;;;-3.72;90.73;96400.28;4982792;28;20036;-80
2022/01/13 08:37:09;;;;;;;18.33;12.43;;;;;;;-3.79;91.01;96391.22;4980794;28;20037;-80
2022/01/13 08:39:42;;;;;;;23.58;13.40;;;;;;;-3.80;90.80;96388.78;4982306;28;20034;-80
2022/01/13 08:42:08;;;;;;;20.88;12.30;;;;;;;-3.67;90.53;96391.72;4987411;28;20035;-80
2022/01/13 08:44:33;;;;;;;18.33;11.32;;;;;;;-3.78;89.00;96394.59;4976168;28;20033;-79
2022/01/13 08:46:59;;;;;;;17.35;11.23;;;;;;;-3.54;88.97;96385.41;4977017;28;20034;-79
2022/01/13 08:49:24;;;;;;;18.88;11.05;;;;;;;-3.60;88.47;96390.66;4957658;28;20030;-79
2022/01/13 08:51:51;;;;;;;18.33;11.32;;;;;;;-3.40;87.30;96389.09;4971552;28;20031;-79
2022/01/13 08:54:19;;;;;;;17.38;11.32;;;;;;;-3.42;87.46;96392.56;4972865;28;20030;-80
2022/01/13 08:56:45;;;;;;;23.98;12.40;;;;;;;-3.57;87.52;96398.16;4984790;28;20083;-79
2022/01/13 08:59:10;;;;;;;20.10;12.35;;;;;;;-3.50;86.98;96385.22;4978472;28;20037;-79
2022/01/13 09:01:36;;;;;;;17.90;10.85;;;;;;;-3.37;86.88;96386.47;4992302;28;20042;-78
2022/01/13 09:04:01;;;;;;;23.45;12.77;;;;;;;-3.27;86.04;96389.53;4979033;28;20033;-80
2022/01/13 09:06:27;;;;;;;16.45;10.65;;;;;;;-3.24;84.74;96374.22;4961392;28;20026;-78
2022/01/13 09:08:52;;;;;;;19.40;12.15;;;;;;;-2.98;83.98;96365.72;4992281;28;20333;-78
2022/01/13 09:11:18;;;;;;;18.30;12.10;;;;;;;-2.58;83.11;96376.09;4967540;28;20023;-78
2022/01/13 09:13:44;;;;;;;16.95;11.02;;;;;;;-2.98;81.22;96384.28;4975559;28;20034;-78
2022/01/13 09:16:17;;;;;;;17.77;11.77;;;;;;;-3.04;83.04;96386.19;4968203;28;20035;-79
2022/01/13 09:22:00;;;;;;;18.73;11.02;;;;;;;-3.16;82.98;96364.66;4994901;28;20062;-81
2022/01/13 09:24:25;;;;;;;17.98;11.75;;;;;;;-2.84;83.02;96371.97;4973800;28;20034;-79
2022/01/13 09:26:51;;;;;;;20.33;11.77;;;;;;;-2.45;81.38;96379.81;4978668;28;20026;-82
2022/01/13 09:29:17;;;;;;;19.83;12.07;;;;;;;-2.70;81.34;96362.13;4977816;28;20480;-81
2022/01/13 09:31:43;;;;;;;17.33;12.00;;;;;;;-2.77;79.65;96332.03;4992892;28;20019;-80
2022/01/13 09:34:09;;;;;;;21.10;12.65;;;;;;;-2.66;79.13;96322.28;4971651;28;20116;-80
2022/01/13 09:36:35;;;;;;;18.50;11.98;;;;;;;-2.25;78.54;96323.28;4968179;28;20078;-79
2022/01/13 09:39:02;;;;;;;18.02;11.35;;;;;;;-2.14;76.62;96347.31;4983287;28;20026;-79
2022/01/13 09:41:32;;;;;;;17.98;12.05;;;;;;;-2.16;75.82;96317.84;4969148;28;20022;-79
2022/01/13 09:44:00;;;;;;;20.02;11.07;;;;;;;-2.99;76.62;96323.56;4984186;28;20062;-79
2022/01/13 09:46:27;;;;;;;17.10;11.55;;;;;;;-2.66;77.25;96329.91;4965986;28;20097;-80
2022/01/13 09:48:54;;;;;;;16.70;11.00;;;;;;;-2.31;77.50;96353.94;4972031;28;20034;-81
2022/01/13 09:51:24;;;;;;;22.58;12.85;;;;;;;-2.44;76.76;96335.00;4971181;28;20042;-79
2022/01/13 09:53:49;;;;;;;18.92;12.65;;;;;;;-2.68;77.83;96322.38;4998318;28;20410;-80
2022/01/13 09:56:14;;;;;;;19.38;11.90;;;;;;;-2.47;77.82;96318.19;4967630;28;20030;-78
2022/01/13 09:58:43;;;;;;;17.05;10.77;;;;;;;-2.10;75.88;96302.38;4984264;28;20034;-80
2022/01/13 10:01:12;;;;;;;18.50;11.85;;;;;;;-2.30;75.49;96340.34;4991600;28;20083;-80
2022/01/13 10:03:38;;;;;;;17.52;11.80;;;;;;;-1.96;76.53;96315.34;4974291;28;20400;-80
2022/01/13 10:06:10;;;;;;;19.45;11.10;;;;;;;-1.52;73.83;96307.59;4985668;28;20030;-79
2022/01/13 10:08:53;;;;;;;17.42;10.98;;;;;;;-1.63;71.06;96303.78;5006763;28;20037;-81
2022/01/13 10:11:58;;;;;;;15.52;10.52;;;;;;;-1.52;70.21;96299.97;4997262;28;20030;-78
2022/01/13 10:16:58;;;;;;;18.83;12.35;;;;;;;-1.63;70.47;96313.13;4976444;28;20451;-78
2022/01/13 10:19:32;;;;;;;20.00;12.30;;;;;;;-1.84;72.48;96302.16;4971179;28;20408;-77
2022/01/13 10:21:59;;;;;;;17.48;11.45;;;;;;;-2.19;73.38;96295.97;4989815;28;20539;-77
2022/01/13 10:24:28;;;;;;;17.92;12.02;;;;;;;-1.66;72.25;96288.69;4970220;28;20030;-78
2022/01/13 10:27:02;;;;;;;18.77;12.02;;;;;;;-1.72;72.17;96294.03;4971606;28;20022;-77
2022/01/13 10:29:40;;;;;;;17.77;11.55;;;;;;;-1.21;70.42;96283.34;4989713;28;20035;-77
2022/01/13 10:32:06;;;;;;;17.08;11.52;;;;;;;-1.86;70.38;96286.13;4988806;28;20491;-76
2022/01/13 10:34:32;;;;;;;17.13;11.98;;;;;;;-1.89;72.53;96272.75;4989558;28;20032;-77
2022/01/13 10:37:17;;;;;;;19.33;11.20;;;;;;;-1.07;70.04;96263.25;4988198;28;20046;-77
2022/01/13 10:39:44;;;;;;;19.95;11.50;;;;;;;-1.21;70.59;96280.00;4955289;28;20481;-77
2022/01/13 10:42:31;;;;;;;17.30;11.68;;;;;;;-1.47;70.44;96268.41;4989468;28;20084;-77
2022/01/13 10:44:58;;;;;;;16.30;10.50;;;;;;;-1.18;69.95;96267.16;4987893;28;20161;-77
2022/01/13 10:47:23;;;;;;;18.20;12.10;;;;;;;-1.90;70.62;96260.97;4952474;28;20034;-77
2022/01/13 10:49:50;;;;;;;16.35;12.90;;;;;;;-1.51;69.97;96250.84;4967557;28;20039;-77
2022/01/13 10:52:16;;;;;;;13.95;10.32;;;;;;;-1.45;71.13;96241.25;4969607;28;20023;-76
2022/01/13 10:54:43;;;;;;;17.88;11.30;;;;;;;-0.67;68.41;96234.28;4967708;28;20479;-77
2022/01/13 10:57:23;;;;;;;17.60;11.05;;;;;;;-1.62;69.98;96238.59;4984172;28;20109;-77
2022/01/13 10:59:48;;;;;;;;;;;;;;;-1.36;70.56;96240.03;4965790;28;20125;-77
2022/01/13 11:02:14;;;;;;;21.48;12.50;;;;;;;-1.81;71.51;96236.03;4970360;28;20154;-77
2022/01/13 11:04:39;;;;;;;16.42;11.25;;;;;;;-1.53;71.31;96234.84;4968448;28;20431;-77
2022/01/13 11:07:27;;;;;;;19.88;12.38;;;;;;;-1.71;70.03;96242.38;4964961;28;21024;-77
2022/01/13 11:10:01;;;;;;;19.98;12.70;;;;;;;-1.45;69.71;96236.19;4988710;28;20030;-78
2022/01/13 11:12:31;;;;;;;21.98;12.90;;;;;;;-0.76;67.82;96244.06;4971204;28;20041;-78
2022/01/13 11:15:04;;;;;;;17.15;11.13;;;;;;;-0.98;68.37;96249.31;4970923;28;20458;-78
2022/01/13 11:17:30;;;;;;;17.30;12.30;;;;;;;-1.23;69.13;96253.84;4987444;28;20034;-78
2022/01/13 11:19:56;;;;;;;18.17;12.55;;;;;;;-1.48;68.11;96238.84;4966992;28;20515;-78
2022/01/13 11:22:23;;;;;;;15.55;11.27;;;;;;;-1.66;69.03;96237.91;4969125;28;20038;-79
2022/01/13 11:24:48;;;;;;;22.35;13.45;;;;;;;-1.83;69.51;96229.38;4958068;28;20470;-79
2022/01/13 11:27:20;;;;;;;23.85;14.05;;;;;;;-1.51;70.47;96231.38;4968575;28;20023;-79
2022/01/13 11:29:46;;;;;;;24.50;13.52;;;;;;;-0.90;68.21;96242.16;4956417;28;20039;-78
2022/01/13 11:32:14;;;;;;;22.17;12.57;;;;;;;-1.23;70.93;96226.72;4953067;28;20038;-79
2022/01/13 11:34:40;;;;;;;22.15;12.82;;;;;;;-1.85;72.07;96229.44;4964624;28;20041;-79
2022/01/13 11:37:06;;;;;;;21.90;13.60;;;;;;;-1.42;70.82;96242.84;4970687;28;20026;-79
2022/01/13 11:39:42;;;;;;;20.10;12.95;;;;;;;-1.43;69.60;96229.31;4991945;28;20062;-78
2022/01/13 11:42:09;;;;;;;21.10;13.27;;;;;;;-1.48;70.67;96226.16;4990377;28;20110;-80
2022/01/13 11:44:36;;;;;;;21.55;14.07;;;;;;;-1.78;71.62;96222.38;4975754;28;20036;-80
2022/01/13 11:47:08;;;;;;;32.35;13.80;;;;;;;-1.30;70.16;96224.50;4973597;28;20466;-79
2022/01/13 11:52:26;;;;;;;23.25;14.25;;;;;;;-1.43;71.11;96233.56;4974619;28;20041;-79
2022/01/13 11:54:51;;;;;;;21.33;12.57;;;;;;;-1.66;70.90;96207.44;4975225;28;20034;-80
2022/01/13 11:57:25;;;;;;;16.67;11.05;;;;;;;-1.72;69.16;96220.41;4988752;28;20420;-78
2022/01/13 12:00:00;;;;;;;19.10;11.85;;;;;;;-1.40;71.04;96231.72;4954456;28;20474;-79
2022/01/13 12:02:28;;;;;;;18.67;12.27;;;;;;;-1.43;69.10;96236.09;4989614;28;20503;-78
2022/01/13 12:04:59;;;;;;;19.65;13.25;;;;;;;-1.47;71.12;96245.56;4988418;28;20454;-79
2022/01/13 12:07:38;;;;;;;21.13;13.50;;;;;;;-1.76;71.52;96256.94;4987993;28;20394;-78
2022/01/13 12:10:05;;;;;;;19.02;11.85;;;;;;;-1.64;70.21;96248.81;4954975;28;20068;-79
2022/01/13 12:12:32;;;;;;;19.02;12.13;;;;;;;-1.38;70.91;96245.16;4970288;28;20046;-78
2022/01/13 12:15:17;;;;;;;19.10;11.43;;;;;;;-1.70;69.48;96230.47;4967841;28;20522;-78
2022/01/13 12:17:47;;;;;;;20.65;13.57;;;;;;;-1.44;71.57;96207.34;4958908;28;20093;-78
2022/01/13 12:20:46;;;;;;;20.38;12.98;;;;;;;-1.39;71.87;96186.81;4979233;28;20463;-77
2022/01/13 12:23:43;;;;;;;17.02;11.95;;;;;;;-1.53;71.94;96186.59;4987729;28;20064;-78
2022/01/13 12:26:33;;;;;;;22.40;13.85;;;;;;;-1.43;71.92;96178.50;4970053;28;20089;-78
2022/01/13 12:29:08;;;;;;;17.88;10.32;;;;;;;-1.75;71.50;96174.03;4989203;28;20061;-78
2022/01/13 12:31:34;;;;;;;24.52;14.18;;;;;;;-1.57;70.85;96195.25;4967852;28;20456;-78
2022/01/13 12:33:59;;;;;;;22.35;12.48;;;;;;;-1.45;71.25;96200.63;4987470;28;20122;-79
2022/01/13 12:36:25;;;;;;;20.33;12.63;;;;;;;-1.57;69.93;96205.41;4990547;28;20038;-78
2022/01/13 12:38:58;;;;;;;19.42;13.10;;;;;;;-1.58;70.49;96206.31;4991879;28;20225;-76
2022/01/13 12:41:26;;;;;;;19.85;12.27;;;;;;;-1.79;70.83;96211.41;4991664;28;20158;-77
2022/01/13 12:44:12;;;;;;;19.20;11.80;;;;;;;-1.64;71.94;96213.28;4989650;28;20030;-79
2022/01/13 12:46:38;;;;;;;18.05;12.40;;;;;;;-1.63;71.16;96217.47;4990038;28;20503;-77
2022/01/13 12:49:04;;;;;;;19.45;12.32;;;;;;;-1.74;72.56;96203.59;4991406;28;20052;-77
2022/01/13 12:51:32;;;;;;;21.23;13.10;;;;;;;-1.64;72.80;96195.50;4989679;28;20105;-78
2022/01/13 12:53:59;;;;;;;16.45;11.13;;;;;;;-1.57;70.99;96210.50;4952902;28;20035;-77
2022/01/13 12:56:27;;;;;;;17.15;11.55;;;;;;;-1.60;72.49;96219.03;4974446;28;20376;-77
2022/01/13 12:59:01;;;;;;;20.85;13.38;;;;;;;-1.73;72.35;96223.00;4966337;28;20038;-77
2022/01/13 13:01:31;;;;;;;21.23;11.75;;;;;;;-1.66;72.42;96211.69;4963894;28;20456;-77
2022/01/13 13:04:02;;;;;;;17.20;11.45;;;;;;;-1.71;72.20;96198.38;4968808;28;20107;-77
2022/01/13 13:06:29;;;;;;;19.02;11.52;;;;;;;-1.72;71.49;96205.19;4970950;28;20085;-77
2022/01/13 13:09:03;;;;;;;19.67;12.23;;;;;;;-1.76;71.89;96202.81;4969377;28;20037;-76
2022/01/13 13:11:40;;;;;;;18.90;11.55;;;;;;;-2.01;71.41;96195.44;4969729;28;20034;-77
2022/01/13 13:14:14;;;;;;;18.60;11.70;;;;;;;-1.91;73.21;96180.66;4969774;28;20085;-76
2022/01/13 13:16:44;;;;;;;24.10;12.00;;;;;;;-2.08;72.24;96170.38;4969850;28;20069;-76
2022/01/13 13:19:09;;;;;;;17.67;10.95;;;;;;;-2.01;73.57;96192.91;4970940;28;20031;-76
2022/01/13 13:21:35;;;;;;;19.17;11.93;;;;;;;-2.14;73.37;96194.28;4966984;28;20046;-77
2022/01/13 13:24:00;;;;;;;23.10;11.52;;;;;;;-2.10;74.05;96192.47;4970261;28;20039;-76
2022/01/13 13:26:26;;;;;;;22.27;12.27;;;;;;;-2.07;72.68;96189.78;4969503;28;20057;-77
2022/01/13 13:28:52;;;;;;;16.27;10.75;;;;;;;-2.14;73.58;96184.16;4968294;28;20380;-77
2022/01/13 13:31:24;;;;;;;18.85;11.80;;;;;;;-2.15;73.01;96185.84;4968277;28;20046;-76
2022/01/13 13:34:01;;;;;;;17.48;11.05;;;;;;;-2.28;72.59;96196.59;4968965;28;20023;-77
2022/01/13 13:36:33;;;;;;;16.75;10.98;;;;;;;-2.28;74.59;96196.59;4968421;28;20623;-77
2022/01/13 13:39:10;;;;;;;17.98;11.23;;;;;;;-2.28;74.66;96214.34;4968428;28;20035;-77
2022/01/13 13:41:39;;;;;;;15.32;10.60;;;;;;;-2.32;75.66;96218.72;4970264;28;20066;-77
2022/01/13 13:44:07;;;;;;;16.38;10.98;;;;;;;-2.34;75.07;96212.03;4968053;28;20035;-77
2022/01/13 13:46:33;;;;;;;16.83;10.18;;;;;;;-2.41;75.82;96195.44;4969287;28;20047;-77
2022/01/13 13:48:59;;;;;;;19.50;11.38;;;;;;;-2.38;76.77;96198.69;4952132;28;20117;-76
2022/01/13 13:51:30;;;;;;;16.75;10.95;;;;;;;-2.59;77.94;96193.63;4968403;28;20464;-77
2022/01/13 13:54:09;;;;;;;18.73;11.40;;;;;;;-2.73;77.30;96186.59;4970098;28;20019;-78
2022/01/13 13:56:37;;;;;;;16.50;10.82;;;;;;;-2.81;78.01;96202.06;4969196;28;20043;-77
2022/01/13 13:59:03;;;;;;;14.80;10.32;;;;;;;-2.77;79.45;96207.84;4968694;28;20027;-77
2022/01/13 14:01:28;;;;;;;20.10;11.88;;;;;;;-2.64;79.04;96208.19;4975458;28;20339;-77
2022/01/13 14:03:54;;;;;;;23.48;12.88;;;;;;;-2.71;79.55;96198.31;4970568;28;20503;-77
2022/01/13 14:06:40;;;;;;;19.08;12.40;;;;;;;-2.81;80.81;96212.22;4970562;28;20035;-76
2022/01/13 14:09:06;;;;;;;21.27;11.20;;;;;;;-2.84;80.42;96219.09;4960158;28;20022;-77
2022/01/13 14:11:49;;;;;;;20.35;12.65;;;;;;;-2.84;79.37;96214.03;4981608;28;20108;-76
2022/01/13 14:14:17;;;;;;;20.35;11.55;;;;;;;-2.97;78.48;96197.66;4969862;28;20026;-77
2022/01/13 14:16:43;;;;;;;23.05;13.10;;;;;;;-2.88;80.35;96195.59;4969269;28;20034;-77
2022/01/13 14:19:12;;;;;;;22.67;13.13;;;;;;;-3.03;79.75;96201.25;4987289;28;20034;-76
2022/01/13 14:21:49;;;;;;;18.98;12.00;;;;;;;-3.15;80.32;96199.19;4969235;28;20038;-77
2022/01/13 14:24:29;;;;;;;20.02;12.07;;;;;;;-2.99;79.26;96207.88;4971177;28;20026;-77
2022/01/13 14:27:07;;;;;;;21.35;12.82;;;;;;;-3.13;80.34;96194.06;4968981;28;20027;-75
2022/01/13 14:29:32;;;;;;;23.48;13.45;;;;;;;-3.21;81.04;96201.94;4969228;28;20038;-76
2022/01/13 14:32:21;;;;;;;22.73;12.98;;;;;;;-3.28;81.19;96206.41;4986810;28;20432;-76
2022/01/13 14:34:49;;;;;;;20.33;12.75;;;;;;;-3.39;81.32;96198.38;4969396;28;20615;-76
2022/01/13 14:37:17;;;;;;;23.63;13.10;;;;;;;-3.45;82.53;96212.97;4969765;28;20412;-76
2022/01/13 14:39:43;;;;;;;20.58;13.80;;;;;;;-3.57;83.63;96211.72;4986692;28;20034;-76
2022/01/13 14:42:14;;;;;;;23.83;11.30;;;;;;;-3.58;85.00;96221.88;4970656;28;20106;-76
2022/01/13 14:44:40;;;;;;;21.73;13.18;;;;;;;-3.61;85.36;96232.09;4969891;28;20038;-76
2022/01/13 14:47:06;;;;;;;20.27;13.35;;;;;;;-3.56;85.11;96230.25;4969219;28;20605;-76
2022/01/13 14:49:35;;;;;;;24.27;13.85;;;;;;;-3.87;86.81;96223.72;4987568;28;20480;-77
2022/01/13 14:52:04;;;;;;;24.60;15.15;;;;;;;-3.86;88.23;96227.91;4967813;28;20042;-76
2022/01/13 14:54:31;;;;;;;21.08;12.27;;;;;;;-3.99;89.25;96233.44;4970133;28;20030;-76
2022/01/13 14:56:57;;;;;;;24.17;14.15;;;;;;;-3.96;89.86;96229.09;4967566;28;20372;-78
2022/01/13 14:59:22;;;;;;;30.58;16.45;;;;;;;-4.05;89.36;96234.47;4969444;28;20049;-76
2022/01/13 15:01:48;;;;;;;26.50;14.60;;;;;;;-4.13;89.49;96244.00;4986127;28;20056;-78
2022/01/13 15:04:14;;;;;;;28.40;14.93;;;;;;;-4.16;90.60;96230.63;4992214;28;20392;-78
2022/01/13 15:06:40;;;;;;;28.88;15.68;;;;;;;-4.34;90.71;96230.38;4969287;28;20034;-78
2022/01/13 15:09:07;;;;;;;34.58;17.05;;;;;;;-4.30;91.05;96234.44;4986216;28;20034;-76
2022/01/13 15:11:32;;;;;;;30.58;16.67;;;;;;;-4.46;92.27;96237.50;4970332;28;20410;-76
2022/01/13 15:13:58;;;;;;;36.78;17.45;;;;;;;-4.56;93.23;96239.50;4986011;28;20026;-76
2022/01/13 15:16:24;;;;;;;36.25;17.35;;;;;;;-4.60;94.16;96254.81;4985454;28;20034;-76
2022/01/13 15:18:53;;;;;;;38.30;19.27;;;;;;;-4.59;94.36;96248.91;4985424;28;20470;-77
2022/01/13 15:21:23;;;;;;;37.13;19.77;;;;;;;-4.69;94.71;96255.94;4970047;28;20034;-77
2022/01/13 15:23:49;;;;;;;34.17;18.23;;;;;;;-4.80;95.10;96252.91;4968885;28;20462;-77
2022/01/13 15:26:14;;;;;;;33.03;18.90;;;;;;;-4.80;94.81;96266.34;4968431;28;20037;-77
2022/01/13 15:28:40;;;;;;;34.97;16.73;;;;;;;-4.82;94.96;96273.13;4986195;28;20046;-76
2022/01/13 15:31:05;;;;;;;36.20;18.08;;;;;;;-4.87;95.77;96264.88;4986070;28;20026;-77
2022/01/13 15:33:31;;;;;;;36.92;18.25;;;;;;;-5.00;95.93;96252.66;4969581;28;20037;-77
2022/01/13 15:35:57;;;;;;;33.33;17.95;;;;;;;-5.09;95.27;96246.19;4985556;28;20026;-77
2022/01/13 15:38:22;;;;;;;43.38;20.80;;;;;;;-5.03;95.26;96263.69;4969064;28;20042;-77
2022/01/13 15:40:48;;;;;;;35.63;18.23;;;;;;;-5.07;95.98;96277.25;4968125;28;20590;-78
2022/01/13 15:43:14;;;;;;;36.97;18.20;;;;;;;-5.12;96.62;96270.69;4968632;28;20030;-76
2022/01/13 15:45:40;;;;;;;40.15;19.08;;;;;;;-5.13;96.85;96274.91;4986217;28;20037;-77
2022/01/13 15:48:06;;;;;;;39.40;19.90;;;;;;;-5.08;96.65;96279.84;4968124;28;20019;-77
2022/01/13 15:50:32;;;;;;;35.80;18.40;;;;;;;-5.17;96.93;96275.06;4968549;28;20034;-77
2022/01/13 15:52:58;;;;;;;38.67;19.40;;;;;;;-5.19;97.61;96279.31;4967592;28;20030;-76
2022/01/13 15:55:23;;;;;;;45.78;20.83;;;;;;;-5.18;97.37;96284.34;4970656;28;20454;-78
2022/01/13 15:57:49;;;;;;;41.75;19.73;;;;;;;-5.21;97.40;96279.38;4953099;28;20034;-77
2022/01/13 16:00:17;;;;;;;37.63;19.90;;;;;;;-5.27;97.16;96283.75;4965004;28;20101;-76
2022/01/13 16:02:43;;;;;;;38.35;18.63;;;;;;;-5.40;97.87;96286.63;4945855;29;20566;-76
2022/01/13 16:05:09;;;;;;;40.30;19.85;;;;;;;-5.41;99.17;96286.66;4946096;29;20470;-77
2022/01/13 16:07:35;;;;;;;40.22;19.27;;;;;;;-5.45;99.45;96288.44;4954769;28;20027;-78
2022/01/13 16:10:01;;;;;;;42.80;20.10;;;;;;;-5.47;99.23;96281.78;4964771;28;20034;-78
2022/01/13 16:12:28;;;;;;;39.58;20.17;;;;;;;-5.27;98.69;96277.03;4982872;28;20597;-78
2022/01/13 16:14:57;;;;;;;45.33;21.33;;;;;;;-5.41;99.00;96299.28;4966098;28;20066;-77
2022/01/13 16:17:23;;;;;;;41.85;21.67;;;;;;;-5.45;99.32;96290.13;4967250;28;20068;-78
2022/01/13 16:19:49;;;;;;;43.55;22.40;;;;;;;-5.36;99.40;96300.78;4965596;28;20492;-78
2022/01/13 16:22:16;;;;;;;39.38;22.20;;;;;;;-5.37;99.53;96294.13;4966684;28;20504;-77
2022/01/13 16:24:42;;;;;;;50.03;24.08;;;;;;;-5.49;99.86;96301.19;4966464;28;20045;-78
2022/01/13 16:27:07;;;;;;;44.72;22.38;;;;;;;-5.48;100.00;96308.72;4965712;28;20053;-77
2022/01/13 16:29:52;;;;;;;43.65;23.33;;;;;;;-5.56;100.00;96300.53;4965590;28;20026;-77
2022/01/13 16:32:18;;;;;;;51.10;25.23;;;;;;;-5.49;100.00;96306.25;4965704;28;20105;-77
2022/01/13 16:34:43;;;;;;;44.85;22.02;;;;;;;-5.44;100.00;96306.94;4967122;28;20840;-77
2022/01/13 16:37:09;;;;;;;51.28;24.73;;;;;;;-5.49;100.00;96306.25;4963598;28;20081;-77